EDT,Max TemperatureF,Mean TemperatureF,Min TemperatureF,Max Dew PointF,MeanDew PointF,Min DewpointF,Max Humidity, Mean Humidity, Min Humidity, Max Sea Level PressureIn, Mean Sea Level PressureIn, Min Sea Level PressureIn, Max VisibilityMiles, Mean VisibilityMiles, Min VisibilityMiles, Max Wind SpeedMPH, Mean Wind SpeedMPH, Max Gust SpeedMPH,PrecipitationIn, CloudCover, Events, WindDirDegrees
2013-10-1,70,63,55,57,55,54,93,77,61,30.13,30.09,30.04,10,10,7,17,8,24,0.00,5,,246
2013-10-2,72,65,57,62,58,54,100,83,66,30.14,30.11,30.07,10,10,9,16,7,21,0.00,2,,259
2013-10-3,73,66,58,62,60,57,97,83,68,30.15,30.12,30.08,10,8,3,9,4,16,0.00,2,,210
2013-10-4,76,69,61,64,62,59,97,79,60,30.17,30.12,30.07,10,8,2,14,6,18,0.32,6,Rain-Thunderstorm,245
2013-10-5,76,69,61,64,62,61,100,82,64,30.13,30.09,30.04,10,8,3,14,5,18,0.05,3,Rain,235
2013-10-6,80,72,64,62,59,56,93,70,47,30.02,29.94,29.85,10,10,10,21,10,31,0.00,1,,184
2013-10-7,66,55,44,59,48,38,100,80,59,30.14,29.88,29.73,10,8,2,20,14,30,0.46,6,Rain,255
2013-10-8,61,51,41,45,40,35,100,70,39,30.33,30.28,30.14,10,10,6,16,5,22,0.00,1,,9
2013-10-9,59,52,44,40,37,34,83,62,40,30.38,30.32,30.28,10,10,10,13,4,17,0.00,0,,102
2013-10-10,56,49,42,46,42,36,100,80,59,30.27,30.20,30.12,10,10,6,9,3,14,0.06,4,Rain,63
2013-10-11,55,51,47,54,49,46,100,97,93,30.12,30.08,30.06,10,4,0,16,9,21,0.90,8,Fog-Rain,52
2013-10-12,66,60,53,57,53,47,100,84,67,30.23,30.15,30.08,10,10,10,14,6,18,0.00,7,,94
2013-10-13,58,55,52,55,52,48,93,85,77,30.33,30.29,30.21,10,10,3,13,6,17,0.04,8,Rain,127
2013-10-14,60,56,52,55,53,51,100,89,78,30.34,30.30,30.26,10,8,2,10,4,16,0.02,8,Rain,145
2013-10-15,63,57,50,53,51,48,100,84,67,30.26,30.17,30.07,10,9,5,13,8,16,0.00,4,,164
2013-10-16,61,56,51,57,51,46,93,79,64,30.05,29.97,29.91,10,10,6,14,7,18,0.07,6,Rain,205
2013-10-17,59,52,45,57,51,44,100,89,77,29.93,29.85,29.69,10,8,1,25,8,35,0.22,8,Rain,268
2013-10-18,54,49,43,43,39,36,92,71,50,30.03,29.96,29.86,10,10,10,22,11,30,0.01,5,,257
2013-10-19,52,45,38,43,38,34,86,78,70,30.01,29.88,29.78,10,10,9,24,10,37,0.03,6,Rain,237
2013-10-20,51,43,35,35,33,32,92,71,50,30.09,30.01,29.90,10,10,10,20,10,30,0.00,3,,249
2013-10-21,61,51,40,35,32,28,67,51,35,30.11,30.02,29.89,10,10,10,17,8,23,0.00,1,,202
2013-10-22,54,45,36,43,33,24,100,73,46,29.94,29.88,29.83,10,10,6,23,10,29,0.06,5,Rain,268
2013-10-23,38,35,32,36,32,26,100,82,64,29.92,29.78,29.69,10,8,2,20,5,24,0.10,8,Rain-Snow,280
2013-10-24,38,34,30,32,28,23,96,78,59,30.14,29.98,29.86,10,8,2,20,11,29,0.01,7,Snow,270
2013-10-25,40,35,30,31,29,26,100,85,70,30.32,30.23,30.07,10,8,0,17,9,24,T,6,Fog,261
2013-10-26,47,38,28,28,24,18,92,62,31,30.27,30.08,29.94,10,10,10,25,13,36,T,3,,228
2013-10-27,44,39,33,32,29,25,89,69,49,30.14,30.04,29.92,10,10,10,23,9,29,0.00,4,,272
2013-10-28,54,44,33,31,28,25,82,60,38,30.30,30.23,30.13,10,10,10,10,4,15,0.00,1,,262
2013-10-29,54,44,34,34,31,28,82,62,41,30.39,30.34,30.30,10,10,10,12,3,16,0.00,1,,276
2013-10-30,61,52,42,50,43,34,89,72,55,30.28,30.20,30.15,10,10,10,10,5,14,0.00,5,,211
2013-10-31,62,58,53,54,53,51,100,86,72,30.13,29.96,29.60,10,10,3,24,12,32,0.28,8,Rain,182